Time;durP1;ratioP1;P1;durP2;ratioP2;P2;SDS_P1;SDS_P2;PMS_P1;PMS_P2;Temp;Humidity;BMP_temperature;BMP_pressure;BME280_temperature;BME280_humidity;BME280_pressure;Samples;Min_cycle;Max_cycle;Signal;HPM_P1;HPM_P2
2021/10/07 00:00:13;;;;;;;5.63;4.03;;;;;;;32.30;24.09;98772.44;5088449;28;20382;-83
2021/10/07 00:02:39;;;;;;;7.10;3.97;;;;;;;32.54;23.63;98764.06;5083538;28;20119;-84
2021/10/07 00:05:08;;;;;;;7.15;3.67;;;;;;;32.71;23.40;98763.28;5077336;28;20094;-84
2021/10/07 00:07:34;;;;;;;5.38;3.67;;;;;;;32.80;23.25;98765.31;5081417;28;20036;-83
2021/10/07 00:10:00;;;;;;;5.32;3.55;;;;;;;32.78;23.35;98769.88;5083012;28;20564;-83
2021/10/07 00:12:26;;;;;;;6.38;4.07;;;;;;;32.86;23.32;98763.38;5080995;28;20032;-83
2021/10/07 00:14:52;;;;;;;4.68;3.25;;;;;;;32.92;23.23;98770.00;5083894;28;20032;-83
2021/10/07 00:17:18;;;;;;;6.85;4.30;;;;;;;32.94;23.10;98772.38;5082119;28;20078;-83
2021/10/07 00:19:44;;;;;;;5.18;3.42;;;;;;;32.98;23.09;98770.94;5082975;28;20036;-83
2021/10/07 00:22:11;;;;;;;3.25;2.47;;;;;;;33.01;22.88;98770.00;5081355;28;20028;-83
2021/10/07 00:24:37;;;;;;;4.22;2.85;;;;;;;33.03;23.08;98766.69;5092509;28;20130;-83
2021/10/07 00:27:04;;;;;;;4.68;2.70;;;;;;;33.06;23.03;98763.69;5085143;28;20131;-83
2021/10/07 00:29:38;;;;;;;3.38;2.88;;;;;;;33.11;22.70;98767.94;5079298;28;20505;-83
2021/10/07 00:32:15;;;;;;;5.72;3.38;;;;;;;33.13;22.53;98771.88;5085290;28;20047;-83
2021/10/07 00:40:09;;;;;;;3.45;2.85;;;;;;;33.02;23.14;98765.13;5085787;28;20044;-83
2021/10/07 00:42:35;;;;;;;3.30;2.47;;;;;;;32.89;23.17;98770.97;5084431;28;20106;-84
2021/10/07 00:45:02;;;;;;;3.33;2.65;;;;;;;32.93;22.94;98763.03;5076075;28;20067;-83
2021/10/07 00:47:28;;;;;;;3.35;2.85;;;;;;;32.97;22.76;98763.69;5079293;28;20482;-84
2021/10/07 00:49:54;;;;;;;3.00;2.63;;;;;;;33.01;22.71;98770.00;5077502;28;20067;-84
2021/10/07 00:52:20;;;;;;;3.40;3.10;;;;;;;33.00;22.98;98767.63;5080842;28;20020;-84
2021/10/07 00:54:52;;;;;;;2.92;2.63;;;;;;;32.97;23.15;98769.38;5080201;28;20036;-84
2021/10/07 00:57:20;;;;;;;2.90;2.35;;;;;;;33.00;22.95;98776.16;5081599;28;20032;-83
2021/10/07 00:59:48;;;;;;;3.60;3.00;;;;;;;33.03;22.75;98776.00;5076130;28;20507;-83
2021/10/07 01:02:15;;;;;;;2.70;2.45;;;;;;;33.02;22.61;98771.59;5087512;28;20036;-83
2021/10/07 01:04:41;;;;;;;3.15;2.58;;;;;;;33.01;23.00;98772.88;5083123;28;20111;-83
2021/10/07 01:07:08;;;;;;;3.28;2.60;;;;;;;32.99;23.07;98769.69;5077716;28;20111;-83
2021/10/07 01:09:35;;;;;;;4.32;3.15;;;;;;;32.96;22.88;98772.69;5083087;28;20090;-84
2021/10/07 01:12:04;;;;;;;3.25;2.90;;;;;;;32.99;22.72;98771.72;5081814;28;20062;-84
2021/10/07 01:14:43;;;;;;;2.70;2.42;;;;;;;33.01;23.01;98775.72;5079766;28;20123;-84
2021/10/07 01:17:11;;;;;;;3.25;2.65;;;;;;;32.98;22.74;98776.63;5084404;28;20489;-83
2021/10/07 01:19:39;;;;;;;5.20;3.08;;;;;;;32.85;23.17;98769.56;5079384;28;20068;-84
2021/10/07 01:22:06;;;;;;;3.78;3.35;;;;;;;32.72;23.23;98770.53;5078238;28;20036;-83
2021/10/07 01:24:32;;;;;;;3.80;3.10;;;;;;;32.73;23.03;98772.13;5087173;28;20178;-83
2021/10/07 01:26:58;;;;;;;4.80;3.63;;;;;;;32.67;23.39;98768.31;5086962;28;20040;-83
2021/10/07 01:29:24;;;;;;;3.15;2.85;;;;;;;32.47;23.58;98775.75;5098835;28;20043;-83
2021/10/07 01:31:50;;;;;;;3.67;3.00;;;;;;;32.44;23.59;98771.03;5078888;28;20910;-83
2021/10/07 01:34:24;;;;;;;3.50;3.20;;;;;;;32.27;23.38;98783.97;5093675;28;20541;-83
2021/10/07 01:36:51;;;;;;;3.90;3.03;;;;;;;32.26;23.57;98777.50;5086069;28;20544;-83
2021/10/07 01:39:19;;;;;;;3.97;3.28;;;;;;;32.42;23.68;98780.00;5087961;28;20046;-83
2021/10/07 01:41:45;;;;;;;2.92;2.63;;;;;;;32.60;23.19;98784.94;5083381;28;20389;-83
2021/10/07 01:44:12;;;;;;;3.20;2.90;;;;;;;32.74;23.28;98785.06;5093262;28;20387;-83
2021/10/07 01:46:38;;;;;;;3.03;2.58;;;;;;;32.84;22.84;98782.22;5083526;28;20024;-84
2021/10/07 01:49:07;;;;;;;4.75;3.03;;;;;;;32.83;22.92;98780.63;5086396;28;20120;-84
2021/10/07 01:51:34;;;;;;;3.10;2.58;;;;;;;32.91;22.96;98782.66;5082925;28;20117;-84
2021/10/07 01:54:00;;;;;;;3.97;2.78;;;;;;;32.95;22.65;98782.50;5082182;28;20028;-83
2021/10/07 01:56:26;;;;;;;2.92;2.60;;;;;;;32.96;22.99;98784.84;5092586;28;20039;-83
2021/10/07 01:58:52;;;;;;;7.13;2.85;;;;;;;32.87;23.05;98787.72;5084170;28;20533;-83
2021/10/07 02:01:18;;;;;;;3.92;3.10;;;;;;;32.88;22.82;98785.69;5083063;28;20513;-83
2021/10/07 02:03:44;;;;;;;3.42;2.60;;;;;;;32.83;22.84;98786.31;5084537;28;20039;-83
2021/10/07 02:06:10;;;;;;;4.18;2.80;;;;;;;32.88;23.08;98788.53;5080927;28;20028;-84
2021/10/07 02:08:36;;;;;;;3.20;2.90;;;;;;;32.63;22.80;98792.50;5077247;28;20535;-83
2021/10/07 02:11:02;;;;;;;3.97;3.38;;;;;;;32.24;23.75;98790.59;5091095;28;20032;-83
2021/10/07 02:13:28;;;;;;;5.20;4.15;;;;;;;31.69;24.25;98790.50;5094454;28;20032;-83
2021/10/07 02:15:54;;;;;;;3.80;3.40;;;;;;;31.37;24.67;98791.78;5080801;28;20082;-83
2021/10/07 02:18:21;;;;;;;3.70;3.30;;;;;;;31.49;24.64;98790.13;5076230;28;20041;-83
2021/10/07 02:20:47;;;;;;;4.82;3.90;;;;;;;31.56;24.57;98792.66;5078978;28;20090;-83
2021/10/07 02:23:13;;;;;;;5.10;4.05;;;;;;;31.57;24.37;98794.25;5082094;28;20032;-84
2021/10/07 02:25:39;;;;;;;6.63;4.40;;;;;;;31.54;24.27;98794.38;5083400;28;20393;-83
2021/10/07 02:28:05;;;;;;;5.70;4.10;;;;;;;31.20;24.83;98798.19;5095567;28;20044;-83
2021/10/07 02:30:31;;;;;;;4.97;3.85;;;;;;;31.22;25.15;98799.31;5094688;28;20107;-83
2021/10/07 02:32:57;;;;;;;4.72;3.80;;;;;;;31.26;24.92;98788.59;5082797;28;20043;-83
2021/10/07 02:35:23;;;;;;;4.50;3.58;;;;;;;31.30;24.77;98796.94;5091923;28;20043;-83
2021/10/07 02:37:49;;;;;;;6.28;4.07;;;;;;;31.26;25.01;98799.16;5086411;28;20443;-83
2021/10/07 02:40:16;;;;;;;4.82;4.25;;;;;;;31.39;24.88;98800.63;5093243;28;20032;-83
2021/10/07 02:42:43;;;;;;;4.28;3.63;;;;;;;31.43;24.84;98800.50;5082642;28;20405;-83
2021/10/07 02:45:12;;;;;;;4.85;3.65;;;;;;;31.38;24.55;98798.25;5092686;28;20043;-83
2021/10/07 02:47:38;;;;;;;5.13;4.07;;;;;;;31.46;24.73;98798.78;5081139;28;20040;-83
2021/10/07 02:50:07;;;;;;;5.30;4.30;;;;;;;31.51;24.68;98806.69;5091672;28;20044;-83
2021/10/07 02:52:33;;;;;;;3.67;3.15;;;;;;;31.52;24.39;98802.59;5091904;28;20176;-83
2021/10/07 02:54:59;;;;;;;6.10;4.45;;;;;;;31.21;24.80;98809.06;5079091;28;20512;-83
2021/10/07 02:57:25;;;;;;;5.07;4.10;;;;;;;31.22;24.86;98807.81;5075610;28;20032;-83
2021/10/07 02:59:51;;;;;;;4.45;3.58;;;;;;;31.29;24.94;98803.91;5075626;28;20037;-83
2021/10/07 03:02:17;;;;;;;4.55;3.85;;;;;;;31.49;24.71;98803.50;5075358;28;20064;-83
2021/10/07 03:04:44;;;;;;;4.68;3.72;;;;;;;31.78;24.33;98807.56;5088750;28;20044;-83
2021/10/07 03:07:11;;;;;;;5.25;3.53;;;;;;;32.01;23.75;98806.22;5089979;28;20032;-83
2021/10/07 03:09:38;;;;;;;5.80;3.90;;;;;;;32.15;23.80;98807.66;5085160;28;20146;-83
2021/10/07 03:12:05;;;;;;;4.60;3.75;;;;;;;31.79;24.32;98811.19;5085978;28;20032;-83
2021/10/07 03:14:31;;;;;;;5.22;3.85;;;;;;;31.72;24.37;98820.78;5094952;28;20391;-83
2021/10/07 03:16:58;;;;;;;4.72;3.47;;;;;;;31.93;24.13;98822.72;5095172;28;20031;-83
2021/10/07 03:19:24;;;;;;;3.50;3.03;;;;;;;32.11;23.68;98827.72;5079629;28;20041;-84
2021/10/07 03:21:50;;;;;;;5.43;3.47;;;;;;;32.30;23.79;98822.81;5098887;28;20029;-84
2021/10/07 03:24:16;;;;;;;4.55;3.45;;;;;;;32.46;23.22;98829.00;5086186;28;20028;-83
2021/10/07 03:26:42;;;;;;;4.07;3.47;;;;;;;32.49;23.41;98827.22;5094872;28;20040;-84
2021/10/07 03:29:08;;;;;;;6.32;3.92;;;;;;;32.55;23.19;98836.75;5095356;28;20032;-83
2021/10/07 03:31:34;;;;;;;4.88;3.50;;;;;;;32.48;23.44;98829.31;5094420;28;20031;-83
2021/10/07 03:34:00;;;;;;;5.03;3.67;;;;;;;32.27;23.80;98835.94;5092992;28;20557;-83
2021/10/07 03:36:26;;;;;;;5.32;4.22;;;;;;;32.11;24.01;98832.59;5089373;28;20063;-84
2021/10/07 03:38:53;;;;;;;6.53;4.50;;;;;;;31.89;23.98;98827.78;5089612;28;20032;-83
2021/10/07 03:41:19;;;;;;;6.55;4.72;;;;;;;31.65;24.27;98835.28;5078712;28;20060;-83
2021/10/07 03:43:45;;;;;;;5.20;4.10;;;;;;;31.84;24.35;98836.91;5089987;28;20040;-83
2021/10/07 03:46:11;;;;;;;5.35;3.72;;;;;;;32.09;23.66;98842.38;5082808;28;20036;-84
2021/10/07 03:48:37;;;;;;;4.13;3.72;;;;;;;32.33;23.59;98841.75;5092711;28;20028;-84
2021/10/07 03:51:03;;;;;;;6.03;3.88;;;;;;;32.43;23.33;98844.16;5083993;28;20057;-83
2021/10/07 03:53:29;;;;;;;4.85;3.70;;;;;;;32.56;23.12;98839.13;5086578;28;20078;-83
2021/10/07 03:55:56;;;;;;;5.35;4.35;;;;;;;32.69;23.09;98844.66;5091804;28;20040;-83
2021/10/07 03:58:22;;;;;;;3.72;3.33;;;;;;;32.74;22.89;98849.72;5090669;28;20039;-83
2021/10/07 04:00:48;;;;;;;4.13;3.53;;;;;;;32.82;23.06;98853.00;5077283;28;20035;-83
2021/10/07 04:03:14;;;;;;;4.80;3.90;;;;;;;32.91;23.05;98861.53;5088230;28;20032;-83
2021/10/07 04:05:40;;;;;;;4.20;3.80;;;;;;;32.77;23.21;98860.13;5081774;28;20372;-83
2021/10/07 04:08:06;;;;;;;5.50;3.85;;;;;;;32.51;23.29;98859.66;5083679;28;20028;-83
2021/10/07 04:10:32;;;;;;;4.82;3.88;;;;;;;32.64;23.44;98865.19;5086988;28;20493;-84
2021/10/07 04:12:59;;;;;;;8.75;3.67;;;;;;;32.77;22.83;98862.97;5075932;28;20158;-83
2021/10/07 04:15:25;;;;;;;5.75;3.60;;;;;;;32.76;23.13;98864.25;5082965;28;20032;-83
2021/10/07 04:17:51;;;;;;;5.13;3.88;;;;;;;32.35;23.34;98862.78;5095443;28;20032;-84
2021/10/07 04:20:18;;;;;;;5.15;4.00;;;;;;;32.03;23.90;98869.84;5092268;28;20484;-83
2021/10/07 04:22:44;;;;;;;6.32;4.65;;;;;;;31.79;24.12;98865.94;5083908;28;20056;-83
2021/10/07 04:25:10;;;;;;;9.52;5.18;;;;;;;31.67;24.66;98868.91;5086699;28;20032;-84
2021/10/07 04:27:36;;;;;;;9.27;6.22;;;;;;;31.69;24.28;98863.53;5083168;28;20032;-83
2021/10/07 04:30:06;;;;;;;8.75;5.47;;;;;;;31.62;24.60;98867.47;5080974;28;20116;-83
2021/10/07 04:32:32;;;;;;;6.65;4.53;;;;;;;31.62;24.70;98870.31;5087200;28;20093;-83
2021/10/07 04:34:59;;;;;;;6.93;4.43;;;;;;;31.80;24.45;98878.88;5081362;28;20024;-83
2021/10/07 04:37:25;;;;;;;7.57;5.00;;;;;;;31.81;24.35;98874.78;5078255;28;20067;-82
2021/10/07 04:39:51;;;;;;;6.63;4.65;;;;;;;32.04;23.89;98882.75;5087579;28;20128;-82
2021/10/07 04:42:17;;;;;;;9.70;4.72;;;;;;;31.71;24.34;98884.53;5080595;28;20042;-84
2021/10/07 04:44:43;;;;;;;9.65;5.00;;;;;;;31.52;24.75;98882.88;5082165;28;20036;-84
2021/10/07 04:47:10;;;;;;;7.60;4.95;;;;;;;31.44;24.95;98881.56;5078438;28;20482;-84
2021/10/07 04:49:36;;;;;;;9.18;5.07;;;;;;;31.45;24.81;98885.19;5091228;28;20043;-84
2021/10/07 04:52:03;;;;;;;10.85;6.30;;;;;;;31.28;24.99;98878.91;5092251;28;20051;-84
2021/10/07 04:54:29;;;;;;;11.63;6.97;;;;;;;31.08;25.48;98892.69;5093695;28;20056;-84
2021/10/07 04:56:56;;;;;;;11.82;6.00;;;;;;;30.97;25.78;98895.91;5090919;28;20039;-85
2021/10/07 04:59:22;;;;;;;9.18;5.38;;;;;;;30.94;25.53;98905.34;5088912;28;20386;-85
2021/10/07 05:01:48;;;;;;;10.40;5.63;;;;;;;30.70;25.83;98899.31;5077052;28;20482;-85
2021/10/07 05:04:14;;;;;;;12.45;6.70;;;;;;;30.49;26.22;98902.09;5076227;28;20025;-85
2021/10/07 05:06:40;;;;;;;9.48;6.38;;;;;;;30.26;26.64;98900.44;5089935;28;20044;-85
2021/10/07 05:09:06;;;;;;;14.73;9.57;;;;;;;29.39;27.84;98902.03;5073781;28;20401;-85
2021/10/07 05:11:32;;;;;;;12.57;6.95;;;;;;;29.71;27.40;98903.88;5071837;28;20040;-85
2021/10/07 05:13:58;;;;;;;11.68;5.82;;;;;;;30.11;26.82;98907.81;5072924;28;20028;-85
2021/10/07 05:16:24;;;;;;;14.48;8.02;;;;;;;30.10;26.96;98909.09;5071918;28;20047;-85
2021/10/07 05:18:50;;;;;;;8.07;5.20;;;;;;;30.34;26.57;98913.13;5073450;28;20035;-84
2021/10/07 05:21:17;;;;;;;11.40;5.32;;;;;;;30.76;26.01;98905.97;5073280;28;20033;-84
2021/10/07 05:23:43;;;;;;;10.43;6.32;;;;;;;30.57;26.14;98907.03;5088737;28;20083;-84
2021/10/07 05:26:09;;;;;;;15.07;8.48;;;;;;;30.17;26.68;98905.22;5100307;28;20115;-84
2021/10/07 05:28:35;;;;;;;15.45;9.10;;;;;;;29.79;27.28;98900.38;5089252;28;20029;-84
2021/10/07 05:31:01;;;;;;;18.92;11.18;;;;;;;28.19;30.00;98907.41;5072611;28;20025;-84
2021/10/07 05:33:27;;;;;;;17.67;9.57;;;;;;;28.79;28.95;98912.25;5072755;28;20032;-84
2021/10/07 05:35:53;;;;;;;10.93;6.90;;;;;;;29.62;27.94;98909.41;5071837;28;20047;-84
2021/10/07 05:38:19;;;;;;;9.68;5.63;;;;;;;30.27;26.85;98915.41;5073975;28;20033;-84
2021/10/07 05:40:45;;;;;;;12.95;7.57;;;;;;;30.54;26.62;98919.31;5073165;28;20037;-85
2021/10/07 05:43:12;;;;;;;15.45;9.07;;;;;;;29.83;27.56;98909.56;5072617;28;20435;-85
2021/10/07 05:45:38;;;;;;;13.00;6.22;;;;;;;30.30;26.99;98915.28;5077231;28;20032;-85
2021/10/07 05:48:05;;;;;;;14.02;8.80;;;;;;;30.17;27.07;98919.38;5073784;28;20060;-85
2021/10/07 05:50:31;;;;;;;11.52;6.68;;;;;;;30.37;27.11;98917.09;5072106;28;20558;-85
2021/10/07 05:52:57;;;;;;;14.02;9.13;;;;;;;29.17;28.23;98918.81;5072803;28;20505;-85
2021/10/07 05:55:23;;;;;;;18.52;10.98;;;;;;;29.19;28.54;98916.38;5079629;28;20170;-85
2021/10/07 05:57:49;;;;;;;12.75;7.03;;;;;;;29.12;29.02;98915.75;5080528;28;20032;-85
2021/10/07 06:00:15;;;;;;;20.15;10.98;;;;;;;26.97;31.84;98921.03;5071605;28;20043;-85
2021/10/07 06:02:41;;;;;;;17.10;10.07;;;;;;;26.19;33.46;98928.09;5074823;28;20039;-84
2021/10/07 06:05:10;;;;;;;15.95;7.93;;;;;;;26.74;33.27;98931.13;5090192;28;20032;-84
2021/10/07 06:07:36;;;;;;;22.15;12.23;;;;;;;27.66;31.05;98926.38;5092657;28;20105;-85
2021/10/07 06:10:05;;;;;;;22.23;12.10;;;;;;;27.75;31.19;98928.63;5096065;28;20089;-85
2021/10/07 06:12:31;;;;;;;21.42;12.13;;;;;;;27.25;31.70;98931.72;5087144;28;20028;-85
2021/10/07 06:14:57;;;;;;;23.23;13.20;;;;;;;26.31;33.69;98933.13;5075170;28;20485;-84
2021/10/07 06:17:23;;;;;;;25.85;12.85;;;;;;;27.33;31.93;98931.13;5076258;28;20056;-85
2021/10/07 06:19:54;;;;;;;21.08;11.38;;;;;;;27.01;32.13;98930.22;5090898;28;20055;-85
2021/10/07 06:22:20;;;;;;;21.38;11.77;;;;;;;27.55;31.50;98928.66;5096469;28;20028;-85
2021/10/07 06:24:46;;;;;;;22.73;11.93;;;;;;;27.90;30.67;98927.84;5096585;28;20040;-85
2021/10/07 06:27:12;;;;;;;15.90;7.50;;;;;;;28.13;30.71;98926.91;5086043;28;20029;-84
2021/10/07 06:29:38;;;;;;;21.42;10.50;;;;;;;27.84;30.87;98923.94;5088524;28;20115;-85
2021/10/07 06:32:04;;;;;;;16.65;8.32;;;;;;;28.57;29.93;98922.53;5095306;28;20028;-85
2021/10/07 06:34:31;;;;;;;16.92;8.15;;;;;;;28.96;29.25;98915.81;5078560;28;20045;-85
2021/10/07 06:36:57;;;;;;;16.88;8.90;;;;;;;29.28;28.62;98924.19;5096112;28;20035;-85
2021/10/07 06:39:23;;;;;;;16.35;9.77;;;;;;;28.92;28.75;98921.56;5096105;28;20036;-85
2021/10/07 06:41:49;;;;;;;14.55;7.75;;;;;;;28.94;29.18;98921.91;5093121;28;20032;-85
2021/10/07 06:44:15;;;;;;;14.57;8.93;;;;;;;28.62;29.70;98930.50;5080629;28;20082;-85
2021/10/07 06:46:41;;;;;;;15.90;8.93;;;;;;;29.28;28.69;98933.50;5089749;28;20035;-85
2021/10/07 06:49:07;;;;;;;11.15;6.43;;;;;;;29.04;29.24;98931.34;5077456;28;20394;-85
2021/10/07 06:51:33;;;;;;;18.27;9.80;;;;;;;28.20;30.36;98943.66;5079588;28;20055;-84
2021/10/07 06:54:01;;;;;;;15.07;9.57;;;;;;;28.78;29.53;98949.47;5076332;28;20044;-85
2021/10/07 06:56:27;;;;;;;20.35;11.23;;;;;;;28.43;30.12;98951.16;5078918;28;20121;-85
2021/10/07 06:58:54;;;;;;;14.88;8.18;;;;;;;29.06;29.31;98946.63;5088410;28;20028;-85
2021/10/07 07:01:24;;;;;;;15.93;9.23;;;;;;;28.63;29.98;98944.19;5095608;28;20040;-85
2021/10/07 07:03:52;;;;;;;;;;;;;;;28.59;29.88;98951.94;5084897;28;20042;-84
2021/10/07 07:06:19;;;;;;;13.90;7.18;;;;;;;28.73;29.66;98960.06;5075427;28;19912;-84
2021/10/07 07:08:45;;;;;;;17.35;9.75;;;;;;;28.13;30.51;98960.78;5094925;28;20115;-84
2021/10/07 07:11:12;;;;;;;20.98;10.50;;;;;;;27.32;32.08;98962.59;5079328;28;20025;-84
2021/10/07 07:13:38;;;;;;;19.70;10.20;;;;;;;26.45;33.41;98966.66;5077461;28;20494;-84
2021/10/07 07:16:05;;;;;;;21.13;10.32;;;;;;;26.59;33.33;98969.22;5075231;28;20056;-84
2021/10/07 07:18:31;;;;;;;18.45;10.23;;;;;;;27.49;31.86;98969.91;5074866;28;20072;-84
2021/10/07 07:20:57;;;;;;;14.68;7.00;;;;;;;27.82;31.60;98968.75;5082185;28;20071;-85
2021/10/07 07:23:23;;;;;;;19.15;10.27;;;;;;;27.19;32.00;98972.94;5093534;28;20325;-84
2021/10/07 07:25:49;;;;;;;20.33;9.75;;;;;;;27.71;31.33;98975.88;5074638;28;20072;-84
2021/10/07 07:28:15;;;;;;;18.90;9.85;;;;;;;27.72;31.38;98972.63;5075271;28;20098;-84
2021/10/07 07:30:42;;;;;;;20.65;10.40;;;;;;;28.39;30.37;98967.41;5074708;28;20029;-85
2021/10/07 07:33:08;;;;;;;14.75;7.38;;;;;;;29.02;29.29;98977.03;5074927;28;20043;-85
2021/10/07 07:35:34;;;;;;;17.40;10.23;;;;;;;28.70;29.62;98972.28;5074682;28;20090;-85
2021/10/07 07:38:03;;;;;;;19.17;9.85;;;;;;;28.79;29.87;98977.28;5086504;28;20126;-85
2021/10/07 07:40:30;;;;;;;15.50;8.35;;;;;;;28.56;30.11;98971.81;5094586;28;20028;-85
2021/10/07 07:42:57;;;;;;;18.75;8.65;;;;;;;28.78;29.53;98983.38;5074616;28;20037;-85
2021/10/07 07:45:24;;;;;;;16.50;8.93;;;;;;;28.22;30.52;98979.94;5074593;28;20033;-84
2021/10/07 07:47:50;;;;;;;18.05;10.15;;;;;;;28.39;30.03;98981.53;5083504;28;20520;-84
2021/10/07 07:50:18;;;;;;;15.23;7.57;;;;;;;28.12;30.93;98984.63;5091799;28;20051;-85
2021/10/07 07:52:46;;;;;;;16.98;9.05;;;;;;;28.54;30.24;98982.75;5086425;28;20056;-84
2021/10/07 07:55:12;;;;;;;21.00;10.88;;;;;;;28.89;29.53;98986.72;5075349;28;20485;-84
2021/10/07 07:57:38;;;;;;;21.90;10.65;;;;;;;28.37;30.32;98992.47;5074234;28;20060;-84
2021/10/07 08:00:05;;;;;;;24.55;11.07;;;;;;;28.54;30.36;98983.53;5074454;28;20158;-85
2021/10/07 08:02:31;;;;;;;19.88;9.25;;;;;;;29.29;29.02;98991.63;5074034;28;20032;-85
2021/10/07 08:04:58;;;;;;;17.33;9.98;;;;;;;29.03;29.71;98991.97;5074349;28;20032;-85
2021/10/07 08:07:24;;;;;;;19.48;10.80;;;;;;;28.53;30.23;98992.47;5084036;28;20515;-85
2021/10/07 08:09:50;;;;;;;22.10;11.90;;;;;;;27.19;32.31;99006.78;5094277;28;20030;-85
2021/10/07 08:12:16;;;;;;;22.10;12.57;;;;;;;27.84;31.03;99000.16;5079473;28;20067;-85
2021/10/07 08:14:44;;;;;;;20.10;11.07;;;;;;;28.31;30.90;98999.91;5089591;28;20123;-85
2021/10/07 08:17:12;;;;;;;20.85;12.13;;;;;;;27.28;32.71;99004.19;5090421;28;20040;-85
2021/10/07 08:19:39;;;;;;;23.95;12.98;;;;;;;27.57;32.09;98998.75;5075501;28;20043;-85
2021/10/07 08:22:05;;;;;;;21.75;12.57;;;;;;;26.89;33.00;99002.09;5079150;28;20038;-84
2021/10/07 08:24:32;;;;;;;18.48;9.60;;;;;;;28.38;31.11;99003.31;5077681;28;20048;-85
2021/10/07 08:27:00;;;;;;;19.58;12.77;;;;;;;27.65;31.58;99001.00;5084639;28;20035;-85
2021/10/07 08:29:26;;;;;;;16.77;9.82;;;;;;;28.48;30.88;98998.66;5083599;28;20393;-85
2021/10/07 08:31:53;;;;;;;16.73;8.95;;;;;;;29.46;29.64;98991.56;5073606;28;20036;-85
2021/10/07 08:34:19;;;;;;;21.13;11.40;;;;;;;29.20;29.43;98999.19;5085907;28;20571;-85
2021/10/07 08:36:46;;;;;;;18.63;9.60;;;;;;;29.67;29.08;98991.72;5089176;28;20032;-85
2021/10/07 08:39:14;;;;;;;20.52;11.25;;;;;;;29.42;29.25;99000.16;5073425;28;20550;-85
2021/10/07 08:41:42;;;;;;;16.15;8.32;;;;;;;30.12;28.35;99000.06;5073812;28;20044;-85
2021/10/07 08:44:08;;;;;;;22.00;12.02;;;;;;;30.27;27.82;99000.41;5072856;28;20029;-85
2021/10/07 08:46:34;;;;;;;18.85;10.20;;;;;;;30.02;27.68;99004.81;5073914;28;20036;-85
2021/10/07 08:49:01;;;;;;;16.63;8.20;;;;;;;30.36;27.80;99007.00;5073781;28;20028;-85
2021/10/07 08:51:27;;;;;;;11.95;6.70;;;;;;;30.61;27.67;99009.00;5074716;28;20173;-85
2021/10/07 08:53:53;;;;;;;16.80;8.85;;;;;;;30.18;27.63;99005.97;5092852;28;20039;-85
2021/10/07 08:56:20;;;;;;;13.77;7.40;;;;;;;30.66;27.56;99002.75;5093491;28;20028;-85
2021/10/07 08:58:47;;;;;;;13.60;7.60;;;;;;;30.45;27.43;99001.44;5092408;28;20101;-85
2021/10/07 09:01:43;;;;;;;13.85;7.13;;;;;;;30.75;26.98;99006.47;5089375;28;20062;-85
2021/10/07 09:04:17;;;;;;;15.70;8.82;;;;;;;29.20;29.04;99002.81;5076236;28;20135;-85
2021/10/07 09:06:52;;;;;;;17.27;10.85;;;;;;;29.00;29.70;99001.34;5089841;28;20104;-85
2021/10/07 09:09:21;;;;;;;17.20;10.48;;;;;;;29.07;30.13;99007.59;5073421;28;20040;-85
2021/10/07 09:11:53;;;;;;;22.60;13.27;;;;;;;27.11;32.41;99020.22;5072154;28;20052;-85
2021/10/07 09:14:25;;;;;;;25.02;15.55;;;;;;;25.61;35.23;99018.59;5073184;28;20029;-85
2021/10/07 09:16:52;;;;;;;22.10;13.50;;;;;;;24.70;37.48;99021.19;5083311;28;20363;-85
2021/10/07 09:19:33;;;;;;;25.17;14.93;;;;;;;24.32;37.87;99016.72;5077106;28;20111;-85
2021/10/07 09:22:11;;;;;;;;;;;;;;;23.86;38.60;99026.22;5082458;28;20037;-85
2021/10/07 09:24:40;;;;;;;26.65;16.77;;;;;;;23.51;39.70;99031.22;5073043;28;19912;-85
2021/10/07 09:27:10;;;;;;;27.73;17.55;;;;;;;23.33;40.26;99020.88;5085367;28;20032;-85
2021/10/07 09:29:39;;;;;;;25.42;15.55;;;;;;;23.97;39.33;99018.53;5073173;28;20021;-85
2021/10/07 09:32:07;;;;;;;24.15;15.05;;;;;;;23.95;39.63;99017.34;5072984;28;20043;-85
2021/10/07 09:34:48;;;;;;;26.23;17.23;;;;;;;23.43;39.80;99022.06;5071496;28;20039;-85
2021/10/07 09:37:23;;;;;;;30.48;16.20;;;;;;;23.75;40.09;99021.88;5081616;28;20032;-84
2021/10/07 09:39:52;;;;;;;26.85;16.92;;;;;;;23.35;40.62;99020.47;5083875;28;20024;-85
2021/10/07 09:42:24;;;;;;;29.40;14.98;;;;;;;24.58;38.27;99019.69;5073003;28;20032;-85
2021/10/07 09:44:58;;;;;;;24.17;14.35;;;;;;;24.60;37.67;99028.50;5075868;28;20033;-85
2021/10/07 09:47:32;;;;;;;21.35;14.82;;;;;;;24.52;38.69;99023.38;5083528;28;20043;-85
2021/10/07 09:50:16;;;;;;;24.52;16.05;;;;;;;23.96;38.85;99030.97;5110369;28;20392;-85
2021/10/07 09:52:44;;;;;;;23.27;14.88;;;;;;;24.77;38.85;99025.97;5078394;28;20550;-85
2021/10/07 09:55:12;;;;;;;20.42;14.75;;;;;;;24.44;38.18;99028.25;5096124;28;20032;-85
2021/10/07 09:57:53;;;;;;;21.45;14.60;;;;;;;24.32;38.46;99020.31;5091560;28;20103;-85
2021/10/07 10:00:20;;;;;;;23.23;14.02;;;;;;;24.69;38.09;99031.63;5076802;28;20024;-85
2021/10/07 10:02:47;;;;;;;25.05;14.38;;;;;;;23.87;39.40;99029.84;5076592;28;20482;-85
2021/10/07 10:05:13;;;;;;;25.83;17.08;;;;;;;22.82;40.92;99036.63;5075950;28;20036;-85
2021/10/07 10:07:44;;;;;;;23.77;16.38;;;;;;;22.62;41.05;99036.22;5094568;28;20032;-85
2021/10/07 10:10:12;;;;;;;17.70;13.43;;;;;;;22.80;41.14;99028.59;5094700;28;20032;-85
2021/10/07 10:12:39;;;;;;;22.70;15.18;;;;;;;22.87;41.28;99033.41;5076734;28;20025;-85
2021/10/07 10:15:07;;;;;;;20.90;15.27;;;;;;;22.59;41.30;99037.78;5076116;28;20102;-85
2021/10/07 10:17:34;;;;;;;20.08;13.55;;;;;;;23.23;40.04;99029.28;5076054;28;20028;-85
2021/10/07 10:20:03;;;;;;;20.08;14.38;;;;;;;23.12;39.76;99029.34;5076027;28;20028;-85
2021/10/07 10:22:30;;;;;;;23.83;14.75;;;;;;;22.93;40.26;99029.78;5076177;28;20032;-85
2021/10/07 10:24:59;;;;;;;19.77;13.45;;;;;;;23.30;39.59;99023.66;5076131;28;20529;-85
2021/10/07 10:27:25;;;;;;;17.58;13.05;;;;;;;24.63;37.03;99022.06;5078945;28;20036;-85
2021/10/07 10:30:28;;;;;;;15.15;11.75;;;;;;;25.95;34.72;99022.16;5096534;28;20056;-85
2021/10/07 10:32:57;;;;;;;18.40;12.10;;;;;;;24.90;35.58;99025.00;5092233;28;20024;-85
2021/10/07 10:35:39;;;;;;;12.60;9.73;;;;;;;25.25;35.44;99016.19;5095364;28;20541;-85
2021/10/07 10:38:09;;;;;;;14.88;10.45;;;;;;;23.99;36.99;99026.56;5089263;28;20047;-85
2021/10/07 10:40:36;;;;;;;16.40;10.40;;;;;;;24.24;37.03;99032.00;5094971;28;20082;-85
2021/10/07 10:43:17;;;;;;;15.43;11.10;;;;;;;23.50;37.59;99029.63;5094534;28;20024;-85
2021/10/07 10:45:46;;;;;;;13.68;10.75;;;;;;;23.56;38.48;99034.41;5076469;28;20108;-85
2021/10/07 10:48:13;;;;;;;12.93;9.25;;;;;;;23.35;38.91;99032.50;5078851;28;20504;-85
2021/10/07 10:50:39;;;;;;;13.10;9.00;;;;;;;23.25;39.07;99033.28;5095078;28;20062;-85
2021/10/07 10:53:22;;;;;;;12.23;9.55;;;;;;;23.27;38.29;99030.88;5095878;28;20505;-85
2021/10/07 10:55:50;;;;;;;13.63;9.60;;;;;;;23.36;37.71;99028.47;5074280;28;20493;-85
2021/10/07 10:58:17;;;;;;;14.30;9.90;;;;;;;23.01;39.06;99027.78;5075509;28;20025;-85
2021/10/07 11:00:45;;;;;;;11.98;8.85;;;;;;;23.70;38.43;99028.72;5074787;28;20036;-85
2021/10/07 11:03:11;;;;;;;11.43;9.05;;;;;;;24.77;36.48;99026.75;5075940;28;20146;-85
2021/10/07 11:05:57;;;;;;;13.38;7.43;;;;;;;27.83;30.80;99026.81;5075936;28;20043;-85
2021/10/07 11:08:24;;;;;;;9.35;7.50;;;;;;;27.38;31.16;99026.53;5083275;28;20027;-85
2021/10/07 11:10:52;;;;;;;11.93;6.25;;;;;;;28.62;29.79;99021.72;5095669;28;20080;-86
2021/10/07 11:13:30;;;;;;;8.98;7.07;;;;;;;26.96;31.75;99023.72;5094614;28;20400;-85
2021/10/07 11:16:02;;;;;;;9.07;7.30;;;;;;;25.61;33.88;99027.84;5074725;28;20032;-85
2021/10/07 11:18:33;;;;;;;10.63;7.45;;;;;;;26.53;32.53;99029.31;5082957;28;20039;-86
2021/10/07 11:21:02;;;;;;;10.23;7.50;;;;;;;26.11;32.92;99029.97;5095719;28;20079;-85
2021/10/07 11:23:32;;;;;;;8.43;6.63;;;;;;;25.24;35.57;99028.69;5095188;28;20028;-85
2021/10/07 11:26:00;;;;;;;9.23;7.25;;;;;;;24.30;36.47;99030.34;5094528;28;20028;-85
2021/10/07 11:28:29;;;;;;;10.35;7.88;;;;;;;24.07;37.04;99032.94;5088453;28;20489;-86
2021/10/07 11:31:11;;;;;;;9.90;7.43;;;;;;;25.23;33.68;99032.69;5074608;28;20029;-85
2021/10/07 11:33:40;;;;;;;9.43;7.90;;;;;;;24.30;35.36;99019.94;5074905;28;20498;-85